Huvudsida
METAR-TAF:

METAR-TAF

Flygplatser :

Vadsø flygplats

Vadsø, Norge

latitud: 70-04N, longitud: 029-51E, höjd: 3 m

Aktuellt väderrapport

Denna rapport gjordes för 1 timme och 36 minuter sedan, klockan 20:50 UTC
Vind 5 kt från nord/nordost
Temperatur 9°C
Fuktighet 100%
Tryck 1016 hPa
Sikt 10 km eller mer
Få moln på en höjd av 800 ft
Spridda moln på en höjd av 2000 ft, Cumulonimbus.
skurar i närheten

METAR: ENVD 062050Z 03005KT 9999 VCSH FEW008 SCT020CB 09/09 Q1016

Tid: 00:26 (22:26 UTC)

Väderprognos

Denna rapport gjordes för 40 minuter sedan, klockan 21:46 UTC
Prognos gäller från 06 kl. 21 UTC till 06 kl. 22 UTC
Vind 9 kt från ost
Sikt 10 km eller mer
Få moln på en höjd av 3000 ft
Temporärt
från 06 kl. 21 UTC till 06 kl. 22 UTC
Spridda moln på en höjd av 4000 ft, Cumulonimbus.
regnskurar

TAF: ENVD 062146Z 0621/0622 08009KT 9999 FEW030 TEMPO 0621/0622 SHRA SCT040CB

Aktuella väderrapporter och prognoser från 4000 flygplatser (METAR- och TAF-rapporter).

De tillgängliga stationerna syns som gula och röda prickar på kartan.

För musen över prickarna för att se namnen på stationerna.

Klicka sedan för att få väderrapporter och prognoser.

För att ändra kartan: Klicka på de gröna knapparna med ett svart kors på för att zooma in; den gröna knappen med ett streck på för att zooma ut; eller på de gröna pilarna för angränsande kartor.


METAR-TAF: